National Weather Service Raw Text Product

Displaying AFOS PIL: TAFMCW Received: 2018-02-14 05:26 UTC


998 
FTUS43 KDMX 140526
TAFMCW
TAF
KMCW 140526Z 1406/1506 18006KT 4SM BR SKC
     FM141100 21008KT 4SM BR SCT200
     FM141500 21010KT P6SM FEW240
     FM150500 25009KT 5SM BR FEW250=